sensor_id;sensor_type;location;lat;lon;timestamp;P1;durP1;ratioP1;P2;durP2;ratioP2
68523;SDS011;55524;51.380;13.372;2022-11-11T00:02:05;6.75;;;3.10;;
68523;SDS011;55524;51.380;13.372;2022-11-11T00:04:32;5.13;;;2.80;;
68523;SDS011;55524;51.380;13.372;2022-11-11T00:06:58;9.25;;;3.35;;
68523;SDS011;55524;51.380;13.372;2022-11-11T00:09:24;7.90;;;3.22;;
68523;SDS011;55524;51.380;13.372;2022-11-11T00:12:11;7.32;;;3.03;;
68523;SDS011;55524;51.380;13.372;2022-11-11T00:15:18;5.55;;;2.80;;
68523;SDS011;55524;51.380;13.372;2022-11-11T00:17:44;9.43;;;3.05;;
68523;SDS011;55524;51.380;13.372;2022-11-11T00:20:29;8.02;;;3.30;;
68523;SDS011;55524;51.380;13.372;2022-11-11T00:23:18;8.18;;;3.03;;
68523;SDS011;55524;51.380;13.372;2022-11-11T00:26:25;8.93;;;3.08;;
68523;SDS011;55524;51.380;13.372;2022-11-11T00:28:54;8.43;;;3.20;;
68523;SDS011;55524;51.380;13.372;2022-11-11T00:31:21;6.90;;;2.97;;
68523;SDS011;55524;51.380;13.372;2022-11-11T00:33:47;10.25;;;3.30;;
68523;SDS011;55524;51.380;13.372;2022-11-11T00:36:36;7.38;;;2.90;;
68523;SDS011;55524;51.380;13.372;2022-11-11T00:39:05;10.52;;;2.97;;
68523;SDS011;55524;51.380;13.372;2022-11-11T00:41:32;10.55;;;3.30;;
68523;SDS011;55524;51.380;13.372;2022-11-11T00:43:58;8.00;;;3.10;;
68523;SDS011;55524;51.380;13.372;2022-11-11T00:46:24;8.00;;;3.10;;
68523;SDS011;55524;51.380;13.372;2022-11-11T00:49:09;5.82;;;3.17;;
68523;SDS011;55524;51.380;13.372;2022-11-11T00:51:53;5.53;;;3.30;;
68523;SDS011;55524;51.380;13.372;2022-11-11T00:54:28;4.80;;;3.35;;
68523;SDS011;55524;51.380;13.372;2022-11-11T00:56:55;7.55;;;3.30;;
68523;SDS011;55524;51.380;13.372;2022-11-11T00:59:21;6.93;;;3.60;;
68523;SDS011;55524;51.380;13.372;2022-11-11T01:01:59;10.82;;;3.88;;
68523;SDS011;55524;51.380;13.372;2022-11-11T01:04:28;11.77;;;3.47;;
68523;SDS011;55524;51.380;13.372;2022-11-11T01:07:15;9.30;;;3.17;;
68523;SDS011;55524;51.380;13.372;2022-11-11T01:10:10;6.70;;;3.78;;
68523;SDS011;55524;51.380;13.372;2022-11-11T01:13:06;7.07;;;3.47;;
68523;SDS011;55524;51.380;13.372;2022-11-11T01:15:46;7.57;;;3.42;;
68523;SDS011;55524;51.380;13.372;2022-11-11T01:18:16;9.02;;;3.65;;
68523;SDS011;55524;51.380;13.372;2022-11-11T01:20:44;6.45;;;3.72;;
68523;SDS011;55524;51.380;13.372;2022-11-11T01:23:32;5.43;;;3.67;;
68523;SDS011;55524;51.380;13.372;2022-11-11T01:26:04;8.77;;;3.22;;
68523;SDS011;55524;51.380;13.372;2022-11-11T01:28:38;7.68;;;3.33;;
68523;SDS011;55524;51.380;13.372;2022-11-11T01:31:06;5.38;;;3.22;;
68523;SDS011;55524;51.380;13.372;2022-11-11T01:33:34;7.93;;;3.30;;
68523;SDS011;55524;51.380;13.372;2022-11-11T01:36:08;8.32;;;3.30;;
68523;SDS011;55524;51.380;13.372;2022-11-11T01:38:57;5.65;;;3.38;;
68523;SDS011;55524;51.380;13.372;2022-11-11T01:41:34;7.57;;;3.17;;
68523;SDS011;55524;51.380;13.372;2022-11-11T01:59:56;6.53;;;3.53;;
68523;SDS011;55524;51.380;13.372;2022-11-11T02:05:05;5.63;;;3.05;;
68523;SDS011;55524;51.380;13.372;2022-11-11T02:08:15;7.53;;;3.28;;
68523;SDS011;55524;51.380;13.372;2022-11-11T02:11:18;6.97;;;2.80;;
68523;SDS011;55524;51.380;13.372;2022-11-11T02:14:30;5.47;;;3.13;;
68523;SDS011;55524;51.380;13.372;2022-11-11T02:17:00;7.88;;;3.03;;
68523;SDS011;55524;51.380;13.372;2022-11-11T02:25:49;5.05;;;2.90;;
68523;SDS011;55524;51.380;13.372;2022-11-11T02:28:38;12.77;;;3.13;;
68523;SDS011;55524;51.380;13.372;2022-11-11T02:31:26;8.68;;;2.72;;
68523;SDS011;55524;51.380;13.372;2022-11-11T02:34:16;6.53;;;2.93;;
68523;SDS011;55524;51.380;13.372;2022-11-11T02:36:42;5.15;;;2.90;;
68523;SDS011;55524;51.380;13.372;2022-11-11T02:39:51;8.23;;;2.67;;
68523;SDS011;55524;51.380;13.372;2022-11-11T02:42:33;8.85;;;2.30;;
68523;SDS011;55524;51.380;13.372;2022-11-11T02:45:00;8.93;;;2.53;;
68523;SDS011;55524;51.380;13.372;2022-11-11T02:47:47;6.20;;;2.33;;
68523;SDS011;55524;51.380;13.372;2022-11-11T02:50:42;3.08;;;2.60;;
68523;SDS011;55524;51.380;13.372;2022-11-11T02:53:11;5.72;;;2.50;;
68523;SDS011;55524;51.380;13.372;2022-11-11T02:55:58;3.05;;;2.33;;
68523;SDS011;55524;51.380;13.372;2022-11-11T02:59:08;7.65;;;2.38;;
68523;SDS011;55524;51.380;13.372;2022-11-11T03:02:27;5.97;;;2.15;;
68523;SDS011;55524;51.380;13.372;2022-11-11T03:05:34;11.23;;;2.40;;
68523;SDS011;55524;51.380;13.372;2022-11-11T03:09:01;5.53;;;2.30;;
68523;SDS011;55524;51.380;13.372;2022-11-11T03:11:47;4.93;;;2.40;;
68523;SDS011;55524;51.380;13.372;2022-11-11T03:14:34;7.28;;;2.38;;
68523;SDS011;55524;51.380;13.372;2022-11-11T03:17:41;7.03;;;2.10;;
68523;SDS011;55524;51.380;13.372;2022-11-11T03:20:14;7.60;;;2.15;;
68523;SDS011;55524;51.380;13.372;2022-11-11T03:25:31;6.40;;;2.00;;
68523;SDS011;55524;51.380;13.372;2022-11-11T03:31:08;7.13;;;2.20;;
68523;SDS011;55524;51.380;13.372;2022-11-11T03:33:37;4.35;;;2.30;;
68523;SDS011;55524;51.380;13.372;2022-11-11T03:36:24;5.68;;;2.50;;
68523;SDS011;55524;51.380;13.372;2022-11-11T03:39:29;6.63;;;2.28;;
68523;SDS011;55524;51.380;13.372;2022-11-11T03:41:58;4.15;;;2.20;;
68523;SDS011;55524;51.380;13.372;2022-11-11T03:44:24;8.15;;;2.15;;
68523;SDS011;55524;51.380;13.372;2022-11-11T03:46:52;5.28;;;2.22;;
68523;SDS011;55524;51.380;13.372;2022-11-11T03:49:19;6.75;;;2.40;;
68523;SDS011;55524;51.380;13.372;2022-11-11T03:51:45;6.18;;;2.47;;
68523;SDS011;55524;51.380;13.372;2022-11-11T03:54:12;5.45;;;1.85;;
68523;SDS011;55524;51.380;13.372;2022-11-11T03:56:38;6.10;;;2.65;;
68523;SDS011;55524;51.380;13.372;2022-11-11T03:59:04;12.85;;;2.90;;
68523;SDS011;55524;51.380;13.372;2022-11-11T04:01:30;3.25;;;1.90;;
68523;SDS011;55524;51.380;13.372;2022-11-11T04:04:15;5.10;;;2.30;;
68523;SDS011;55524;51.380;13.372;2022-11-11T04:07:00;6.22;;;2.10;;
68523;SDS011;55524;51.380;13.372;2022-11-11T04:09:44;4.80;;;2.25;;
68523;SDS011;55524;51.380;13.372;2022-11-11T04:12:29;11.52;;;2.40;;
68523;SDS011;55524;51.380;13.372;2022-11-11T04:15:19;9.63;;;2.20;;
68523;SDS011;55524;51.380;13.372;2022-11-11T04:18:04;8.32;;;2.42;;
68523;SDS011;55524;51.380;13.372;2022-11-11T04:20:41;9.95;;;2.55;;
68523;SDS011;55524;51.380;13.372;2022-11-11T04:23:09;6.43;;;2.17;;
68523;SDS011;55524;51.380;13.372;2022-11-11T04:25:35;6.68;;;2.50;;
68523;SDS011;55524;51.380;13.372;2022-11-11T04:28:13;7.40;;;2.20;;
68523;SDS011;55524;51.380;13.372;2022-11-11T04:30:58;3.38;;;1.92;;
68523;SDS011;55524;51.380;13.372;2022-11-11T04:33:25;9.48;;;2.00;;
68523;SDS011;55524;51.380;13.372;2022-11-11T04:35:51;5.97;;;2.17;;
68523;SDS011;55524;51.380;13.372;2022-11-11T04:38:17;4.45;;;2.10;;
68523;SDS011;55524;51.380;13.372;2022-11-11T04:41:01;6.75;;;2.35;;
68523;SDS011;55524;51.380;13.372;2022-11-11T04:43:28;5.18;;;1.85;;
68523;SDS011;55524;51.380;13.372;2022-11-11T04:45:58;9.82;;;2.80;;
68523;SDS011;55524;51.380;13.372;2022-11-11T04:48:25;4.75;;;2.10;;
68523;SDS011;55524;51.380;13.372;2022-11-11T04:50:52;4.15;;;2.33;;
68523;SDS011;55524;51.380;13.372;2022-11-11T04:53:18;4.63;;;2.10;;
68523;SDS011;55524;51.380;13.372;2022-11-11T04:55:44;5.32;;;2.03;;
68523;SDS011;55524;51.380;13.372;2022-11-11T04:58:30;6.97;;;2.30;;
68523;SDS011;55524;51.380;13.372;2022-11-11T05:00:59;10.73;;;2.90;;
68523;SDS011;55524;51.380;13.372;2022-11-11T05:03:25;4.35;;;2.00;;
68523;SDS011;55524;51.380;13.372;2022-11-11T05:08:39;3.72;;;1.75;;
68523;SDS011;55524;51.380;13.372;2022-11-11T05:13:51;5.85;;;1.95;;
68523;SDS011;55524;51.380;13.372;2022-11-11T05:16:40;7.18;;;1.85;;
68523;SDS011;55524;51.380;13.372;2022-11-11T05:19:30;3.30;;;1.77;;
68523;SDS011;55524;51.380;13.372;2022-11-11T05:24:58;3.08;;;1.77;;
68523;SDS011;55524;51.380;13.372;2022-11-11T05:27:44;3.47;;;2.03;;
68523;SDS011;55524;51.380;13.372;2022-11-11T05:30:10;3.55;;;1.80;;
68523;SDS011;55524;51.380;13.372;2022-11-11T05:32:38;6.45;;;1.90;;
68523;SDS011;55524;51.380;13.372;2022-11-11T05:35:05;3.88;;;1.80;;
68523;SDS011;55524;51.380;13.372;2022-11-11T05:37:32;6.25;;;1.85;;
68523;SDS011;55524;51.380;13.372;2022-11-11T05:40:03;5.88;;;1.70;;
68523;SDS011;55524;51.380;13.372;2022-11-11T05:42:29;4.60;;;1.60;;
68523;SDS011;55524;51.380;13.372;2022-11-11T05:44:56;3.75;;;1.95;;
68523;SDS011;55524;51.380;13.372;2022-11-11T05:47:22;7.35;;;1.80;;
68523;SDS011;55524;51.380;13.372;2022-11-11T05:49:49;8.80;;;1.85;;
68523;SDS011;55524;51.380;13.372;2022-11-11T05:52:16;6.07;;;1.90;;
68523;SDS011;55524;51.380;13.372;2022-11-11T05:54:45;2.95;;;1.45;;
68523;SDS011;55524;51.380;13.372;2022-11-11T05:57:11;5.72;;;1.60;;
68523;SDS011;55524;51.380;13.372;2022-11-11T05:59:37;5.88;;;1.58;;
68523;SDS011;55524;51.380;13.372;2022-11-11T06:02:04;4.72;;;1.77;;
68523;SDS011;55524;51.380;13.372;2022-11-11T06:04:50;9.05;;;2.10;;
68523;SDS011;55524;51.380;13.372;2022-11-11T06:07:57;6.88;;;2.00;;
68523;SDS011;55524;51.380;13.372;2022-11-11T06:10:44;5.43;;;1.83;;
68523;SDS011;55524;51.380;13.372;2022-11-11T06:13:15;5.55;;;2.03;;
68523;SDS011;55524;51.380;13.372;2022-11-11T06:15:41;3.13;;;2.10;;
68523;SDS011;55524;51.380;13.372;2022-11-11T06:18:07;4.32;;;1.75;;
68523;SDS011;55524;51.380;13.372;2022-11-11T06:20:33;5.15;;;2.15;;
68523;SDS011;55524;51.380;13.372;2022-11-11T06:23:00;4.45;;;1.75;;
68523;SDS011;55524;51.380;13.372;2022-11-11T06:25:30;7.40;;;1.70;;
68523;SDS011;55524;51.380;13.372;2022-11-11T06:28:16;5.97;;;1.98;;
68523;SDS011;55524;51.380;13.372;2022-11-11T06:31:03;6.03;;;1.90;;
68523;SDS011;55524;51.380;13.372;2022-11-11T06:33:31;5.65;;;1.98;;
68523;SDS011;55524;51.380;13.372;2022-11-11T06:36:02;13.07;;;2.30;;
68523;SDS011;55524;51.380;13.372;2022-11-11T06:38:32;4.38;;;1.70;;
68523;SDS011;55524;51.380;13.372;2022-11-11T06:40:58;5.50;;;1.88;;
68523;SDS011;55524;51.380;13.372;2022-11-11T06:43:25;4.72;;;1.80;;
68523;SDS011;55524;51.380;13.372;2022-11-11T06:45:52;5.07;;;2.10;;
68523;SDS011;55524;51.380;13.372;2022-11-11T06:48:39;2.15;;;1.70;;
68523;SDS011;55524;51.380;13.372;2022-11-11T06:51:14;3.70;;;1.77;;
68523;SDS011;55524;51.380;13.372;2022-11-11T06:53:41;6.22;;;2.00;;
68523;SDS011;55524;51.380;13.372;2022-11-11T06:56:08;3.03;;;1.77;;
68523;SDS011;55524;51.380;13.372;2022-11-11T06:58:36;7.63;;;1.92;;
68523;SDS011;55524;51.380;13.372;2022-11-11T07:01:06;2.97;;;1.92;;
68523;SDS011;55524;51.380;13.372;2022-11-11T07:03:34;9.20;;;2.00;;
68523;SDS011;55524;51.380;13.372;2022-11-11T07:06:21;9.10;;;1.80;;
68523;SDS011;55524;51.380;13.372;2022-11-11T07:08:56;2.45;;;1.60;;
68523;SDS011;55524;51.380;13.372;2022-11-11T07:11:37;10.90;;;1.92;;
68523;SDS011;55524;51.380;13.372;2022-11-11T07:14:03;7.93;;;1.83;;
68523;SDS011;55524;51.380;13.372;2022-11-11T07:16:29;6.72;;;1.80;;
68523;SDS011;55524;51.380;13.372;2022-11-11T07:18:56;8.38;;;1.35;;
68523;SDS011;55524;51.380;13.372;2022-11-11T07:21:22;12.40;;;1.52;;
68523;SDS011;55524;51.380;13.372;2022-11-11T07:23:48;5.53;;;1.55;;
68523;SDS011;55524;51.380;13.372;2022-11-11T07:26:15;4.32;;;1.42;;
68523;SDS011;55524;51.380;13.372;2022-11-11T07:28:41;6.95;;;1.40;;
68523;SDS011;55524;51.380;13.372;2022-11-11T07:31:07;8.85;;;1.90;;
68523;SDS011;55524;51.380;13.372;2022-11-11T07:33:33;11.10;;;1.73;;
68523;SDS011;55524;51.380;13.372;2022-11-11T07:36:00;5.32;;;1.60;;
68523;SDS011;55524;51.380;13.372;2022-11-11T07:38:46;8.45;;;1.60;;
68523;SDS011;55524;51.380;13.372;2022-11-11T07:41:36;24.02;;;2.20;;
68523;SDS011;55524;51.380;13.372;2022-11-11T07:44:02;4.38;;;1.35;;
68523;SDS011;55524;51.380;13.372;2022-11-11T07:46:28;3.70;;;1.67;;
68523;SDS011;55524;51.380;13.372;2022-11-11T07:48:55;3.92;;;1.40;;
68523;SDS011;55524;51.380;13.372;2022-11-11T07:51:30;15.07;;;2.05;;
68523;SDS011;55524;51.380;13.372;2022-11-11T07:53:57;6.53;;;1.30;;
68523;SDS011;55524;51.380;13.372;2022-11-11T07:56:23;3.97;;;1.50;;
68523;SDS011;55524;51.380;13.372;2022-11-11T07:58:49;4.13;;;1.50;;
68523;SDS011;55524;51.380;13.372;2022-11-11T08:01:15;2.20;;;1.02;;
68523;SDS011;55524;51.380;13.372;2022-11-11T08:03:42;6.45;;;1.20;;
68523;SDS011;55524;51.380;13.372;2022-11-11T08:06:15;5.03;;;1.33;;
68523;SDS011;55524;51.380;13.372;2022-11-11T08:08:45;4.03;;;1.48;;
68523;SDS011;55524;51.380;13.372;2022-11-11T08:11:12;7.95;;;1.38;;
68523;SDS011;55524;51.380;13.372;2022-11-11T08:13:59;10.10;;;1.48;;
68523;SDS011;55524;51.380;13.372;2022-11-11T08:16:45;7.90;;;1.48;;
68523;SDS011;55524;51.380;13.372;2022-11-11T08:19:12;4.75;;;1.33;;
68523;SDS011;55524;51.380;13.372;2022-11-11T08:21:47;6.15;;;1.50;;
68523;SDS011;55524;51.380;13.372;2022-11-11T08:24:37;6.72;;;1.50;;
68523;SDS011;55524;51.380;13.372;2022-11-11T08:27:23;5.10;;;1.60;;
68523;SDS011;55524;51.380;13.372;2022-11-11T08:29:53;4.95;;;1.35;;
68523;SDS011;55524;51.380;13.372;2022-11-11T08:32:19;3.60;;;1.23;;
68523;SDS011;55524;51.380;13.372;2022-11-11T08:34:45;7.85;;;1.40;;
68523;SDS011;55524;51.380;13.372;2022-11-11T08:37:11;13.00;;;2.45;;
68523;SDS011;55524;51.380;13.372;2022-11-11T08:39:38;2.45;;;1.27;;
68523;SDS011;55524;51.380;13.372;2022-11-11T08:42:05;7.60;;;1.40;;
68523;SDS011;55524;51.380;13.372;2022-11-11T08:44:31;6.60;;;1.52;;
68523;SDS011;55524;51.380;13.372;2022-11-11T08:46:58;6.03;;;1.20;;
68523;SDS011;55524;51.380;13.372;2022-11-11T08:49:24;4.05;;;1.27;;
68523;SDS011;55524;51.380;13.372;2022-11-11T08:51:50;8.90;;;1.25;;
68523;SDS011;55524;51.380;13.372;2022-11-11T08:54:16;3.80;;;1.10;;
68523;SDS011;55524;51.380;13.372;2022-11-11T08:56:43;4.63;;;1.20;;
68523;SDS011;55524;51.380;13.372;2022-11-11T08:59:29;17.83;;;2.00;;
68523;SDS011;55524;51.380;13.372;2022-11-11T09:02:36;5.15;;;1.35;;
68523;SDS011;55524;51.380;13.372;2022-11-11T09:05:03;4.78;;;1.30;;
68523;SDS011;55524;51.380;13.372;2022-11-11T09:07:33;5.28;;;1.20;;
68523;SDS011;55524;51.380;13.372;2022-11-11T09:09:59;2.92;;;1.20;;
68523;SDS011;55524;51.380;13.372;2022-11-11T09:12:26;5.20;;;1.23;;
68523;SDS011;55524;51.380;13.372;2022-11-11T09:14:52;2.95;;;1.00;;
68523;SDS011;55524;51.380;13.372;2022-11-11T09:20:44;4.78;;;1.17;;
68523;SDS011;55524;51.380;13.372;2022-11-11T09:23:13;2.35;;;1.08;;
68523;SDS011;55524;51.380;13.372;2022-11-11T09:26:00;2.38;;;1.20;;
68523;SDS011;55524;51.380;13.372;2022-11-11T09:28:30;2.72;;;1.20;;
68523;SDS011;55524;51.380;13.372;2022-11-11T09:30:58;5.20;;;1.00;;
68523;SDS011;55524;51.380;13.372;2022-11-11T09:33:25;2.88;;;1.20;;
68523;SDS011;55524;51.380;13.372;2022-11-11T09:35:52;1.33;;;0.90;;
68523;SDS011;55524;51.380;13.372;2022-11-11T09:38:22;1.77;;;0.93;;
68523;SDS011;55524;51.380;13.372;2022-11-11T09:40:51;6.68;;;1.27;;
68523;SDS011;55524;51.380;13.372;2022-11-11T09:43:34;3.70;;;1.20;;
68523;SDS011;55524;51.380;13.372;2022-11-11T09:48:59;2.58;;;1.00;;
68523;SDS011;55524;51.380;13.372;2022-11-11T09:54:13;4.72;;;1.20;;
68523;SDS011;55524;51.380;13.372;2022-11-11T09:56:44;5.80;;;0.95;;
68523;SDS011;55524;51.380;13.372;2022-11-11T09:59:31;3.22;;;1.10;;
68523;SDS011;55524;51.380;13.372;2022-11-11T10:13:00;5.22;;;1.02;;
68523;SDS011;55524;51.380;13.372;2022-11-11T10:15:34;1.83;;;1.00;;
68523;SDS011;55524;51.380;13.372;2022-11-11T10:18:18;2.40;;;1.40;;
68523;SDS011;55524;51.380;13.372;2022-11-11T10:21:18;4.68;;;1.30;;
68523;SDS011;55524;51.380;13.372;2022-11-11T10:24:25;2.22;;;1.00;;
68523;SDS011;55524;51.380;13.372;2022-11-11T10:29:59;6.38;;;1.00;;
68523;SDS011;55524;51.380;13.372;2022-11-11T10:33:13;3.88;;;1.08;;
68523;SDS011;55524;51.380;13.372;2022-11-11T10:36:12;2.38;;;1.00;;
68523;SDS011;55524;51.380;13.372;2022-11-11T10:39:03;1.30;;;0.73;;
68523;SDS011;55524;51.380;13.372;2022-11-11T10:41:37;2.25;;;0.98;;
68523;SDS011;55524;51.380;13.372;2022-11-11T10:49:29;7.03;;;1.08;;
68523;SDS011;55524;51.380;13.372;2022-11-11T10:52:23;1.50;;;0.90;;
68523;SDS011;55524;51.380;13.372;2022-11-11T10:55:24;2.35;;;0.88;;
68523;SDS011;55524;51.380;13.372;2022-11-11T11:01:04;2.05;;;0.90;;
68523;SDS011;55524;51.380;13.372;2022-11-11T11:03:38;3.70;;;1.10;;
68523;SDS011;55524;51.380;13.372;2022-11-11T11:06:43;11.20;;;1.38;;
68523;SDS011;55524;51.380;13.372;2022-11-11T11:15:03;4.82;;;1.00;;
68523;SDS011;55524;51.380;13.372;2022-11-11T11:17:38;20.40;;;1.60;;
68523;SDS011;55524;51.380;13.372;2022-11-11T11:20:17;5.20;;;0.90;;
68523;SDS011;55524;51.380;13.372;2022-11-11T11:25:20;5.60;;;0.90;;
68523;SDS011;55524;51.380;13.372;2022-11-11T11:27:48;1.63;;;0.70;;
68523;SDS011;55524;51.380;13.372;2022-11-11T11:32:59;3.67;;;1.10;;
68523;SDS011;55524;51.380;13.372;2022-11-11T11:35:38;4.45;;;0.90;;
68523;SDS011;55524;51.380;13.372;2022-11-11T11:38:09;5.00;;;0.77;;
68523;SDS011;55524;51.380;13.372;2022-11-11T11:40:44;3.28;;;0.70;;
68523;SDS011;55524;51.380;13.372;2022-11-11T11:43:23;5.18;;;0.90;;
68523;SDS011;55524;51.380;13.372;2022-11-11T11:45:59;2.92;;;0.70;;
68523;SDS011;55524;51.380;13.372;2022-11-11T11:48:32;2.22;;;0.80;;
68523;SDS011;55524;51.380;13.372;2022-11-11T11:56:49;2.72;;;0.80;;
68523;SDS011;55524;51.380;13.372;2022-11-11T11:59:21;4.55;;;0.77;;
68523;SDS011;55524;51.380;13.372;2022-11-11T12:16:46;3.17;;;0.60;;
68523;SDS011;55524;51.380;13.372;2022-11-11T12:19:23;6.28;;;0.90;;
68523;SDS011;55524;51.380;13.372;2022-11-11T12:24:56;1.58;;;0.70;;
68523;SDS011;55524;51.380;13.372;2022-11-11T12:30:20;3.03;;;0.80;;
68523;SDS011;55524;51.380;13.372;2022-11-11T12:35:45;2.33;;;0.70;;
68523;SDS011;55524;51.380;13.372;2022-11-11T12:38:52;1.17;;;0.70;;
68523;SDS011;55524;51.380;13.372;2022-11-11T12:44:36;1.25;;;0.80;;
68523;SDS011;55524;51.380;13.372;2022-11-11T12:50:25;1.58;;;0.80;;
68523;SDS011;55524;51.380;13.372;2022-11-11T12:53:17;2.58;;;0.80;;
68523;SDS011;55524;51.380;13.372;2022-11-11T12:58:42;1.92;;;0.85;;
68523;SDS011;55524;51.380;13.372;2022-11-11T13:01:54;1.98;;;0.80;;
68523;SDS011;55524;51.380;13.372;2022-11-11T13:15:41;1.83;;;0.80;;
68523;SDS011;55524;51.380;13.372;2022-11-11T13:18:22;2.17;;;0.77;;
68523;SDS011;55524;51.380;13.372;2022-11-11T13:21:42;1.73;;;0.80;;
68523;SDS011;55524;51.380;13.372;2022-11-11T13:24:25;1.02;;;0.70;;
68523;SDS011;55524;51.380;13.372;2022-11-11T13:27:03;1.95;;;0.70;;
68523;SDS011;55524;51.380;13.372;2022-11-11T13:32:11;1.92;;;0.80;;
68523;SDS011;55524;51.380;13.372;2022-11-11T13:41:40;2.65;;;1.20;;
68523;SDS011;55524;51.380;13.372;2022-11-11T13:44:49;2.72;;;0.85;;
68523;SDS011;55524;51.380;13.372;2022-11-11T13:47:19;1.27;;;0.90;;
68523;SDS011;55524;51.380;13.372;2022-11-11T13:50:23;3.70;;;0.90;;
68523;SDS011;55524;51.380;13.372;2022-11-11T13:53:03;1.48;;;0.85;;
68523;SDS011;55524;51.380;13.372;2022-11-11T13:55:35;3.35;;;0.70;;
68523;SDS011;55524;51.380;13.372;2022-11-11T13:58:16;2.40;;;0.90;;
68523;SDS011;55524;51.380;13.372;2022-11-11T14:00:58;3.63;;;1.00;;
68523;SDS011;55524;51.380;13.372;2022-11-11T14:03:32;4.05;;;0.80;;
68523;SDS011;55524;51.380;13.372;2022-11-11T14:22:56;3.47;;;0.88;;
68523;SDS011;55524;51.380;13.372;2022-11-11T14:25:44;2.35;;;0.90;;
68523;SDS011;55524;51.380;13.372;2022-11-11T14:45:09;2.40;;;1.20;;
68523;SDS011;55524;51.380;13.372;2022-11-11T14:47:57;2.80;;;1.27;;
68523;SDS011;55524;51.380;13.372;2022-11-11T14:52:59;1.70;;;1.10;;
68523;SDS011;55524;51.380;13.372;2022-11-11T14:55:39;2.30;;;1.15;;
68523;SDS011;55524;51.380;13.372;2022-11-11T14:58:24;1.83;;;1.10;;
68523;SDS011;55524;51.380;13.372;2022-11-11T15:01:16;1.45;;;1.23;;
68523;SDS011;55524;51.380;13.372;2022-11-11T15:03:45;2.28;;;1.10;;
68523;SDS011;55524;51.380;13.372;2022-11-11T15:11:56;2.00;;;1.20;;
68523;SDS011;55524;51.380;13.372;2022-11-11T15:22:56;2.83;;;1.58;;
68523;SDS011;55524;51.380;13.372;2022-11-11T15:25:46;5.30;;;1.60;;
68523;SDS011;55524;51.380;13.372;2022-11-11T15:28:47;4.13;;;1.90;;
68523;SDS011;55524;51.380;13.372;2022-11-11T15:37:12;4.03;;;2.50;;
68523;SDS011;55524;51.380;13.372;2022-11-11T15:39:45;5.63;;;2.70;;
68523;SDS011;55524;51.380;13.372;2022-11-11T15:44:52;8.73;;;3.90;;
68523;SDS011;55524;51.380;13.372;2022-11-11T15:47:19;5.57;;;2.58;;
68523;SDS011;55524;51.380;13.372;2022-11-11T15:49:49;7.30;;;1.98;;
68523;SDS011;55524;51.380;13.372;2022-11-11T15:54:59;4.53;;;1.95;;
68523;SDS011;55524;51.380;13.372;2022-11-11T15:57:34;3.97;;;2.10;;
68523;SDS011;55524;51.380;13.372;2022-11-11T16:00:18;2.97;;;1.65;;
68523;SDS011;55524;51.380;13.372;2022-11-11T16:02:47;3.47;;;1.60;;
68523;SDS011;55524;51.380;13.372;2022-11-11T16:05:21;3.00;;;1.65;;
68523;SDS011;55524;51.380;13.372;2022-11-11T16:07:57;1.60;;;1.50;;
68523;SDS011;55524;51.380;13.372;2022-11-11T16:10:36;3.42;;;1.80;;
68523;SDS011;55524;51.380;13.372;2022-11-11T16:13:15;3.33;;;1.88;;
68523;SDS011;55524;51.380;13.372;2022-11-11T16:15:57;2.00;;;1.45;;
68523;SDS011;55524;51.380;13.372;2022-11-11T16:18:29;3.50;;;1.83;;
68523;SDS011;55524;51.380;13.372;2022-11-11T16:21:10;2.55;;;1.75;;
68523;SDS011;55524;51.380;13.372;2022-11-11T16:23:48;2.65;;;1.90;;
68523;SDS011;55524;51.380;13.372;2022-11-11T16:26:16;3.80;;;1.90;;
68523;SDS011;55524;51.380;13.372;2022-11-11T16:28:46;5.55;;;2.00;;
68523;SDS011;55524;51.380;13.372;2022-11-11T16:37:01;4.28;;;1.90;;
68523;SDS011;55524;51.380;13.372;2022-11-11T16:39:37;3.80;;;2.20;;
68523;SDS011;55524;51.380;13.372;2022-11-11T16:42:16;5.82;;;2.75;;
68523;SDS011;55524;51.380;13.372;2022-11-11T16:44:52;9.77;;;2.38;;
68523;SDS011;55524;51.380;13.372;2022-11-11T16:52:56;4.88;;;2.55;;
68523;SDS011;55524;51.380;13.372;2022-11-11T16:55:36;2.70;;;2.38;;
68523;SDS011;55524;51.380;13.372;2022-11-11T16:58:09;3.47;;;2.50;;
68523;SDS011;55524;51.380;13.372;2022-11-11T17:01:20;5.47;;;2.50;;
68523;SDS011;55524;51.380;13.372;2022-11-11T17:03:55;4.13;;;2.58;;
68523;SDS011;55524;51.380;13.372;2022-11-11T17:06:51;5.95;;;3.20;;
68523;SDS011;55524;51.380;13.372;2022-11-11T17:09:32;8.82;;;3.13;;
68523;SDS011;55524;51.380;13.372;2022-11-11T17:11:59;11.93;;;3.47;;
68523;SDS011;55524;51.380;13.372;2022-11-11T17:14:35;15.02;;;3.20;;
68523;SDS011;55524;51.380;13.372;2022-11-11T17:17:03;3.65;;;3.00;;
68523;SDS011;55524;51.380;13.372;2022-11-11T17:19:32;4.40;;;2.97;;
68523;SDS011;55524;51.380;13.372;2022-11-11T17:22:05;5.28;;;3.13;;
68523;SDS011;55524;51.380;13.372;2022-11-11T17:24:36;5.43;;;2.78;;
68523;SDS011;55524;51.380;13.372;2022-11-11T17:27:03;5.90;;;3.30;;
68523;SDS011;55524;51.380;13.372;2022-11-11T17:29:30;5.85;;;3.00;;
68523;SDS011;55524;51.380;13.372;2022-11-11T17:32:05;4.20;;;3.28;;
68523;SDS011;55524;51.380;13.372;2022-11-11T17:34:31;9.23;;;4.07;;
68523;SDS011;55524;51.380;13.372;2022-11-11T17:36:58;6.85;;;3.58;;
68523;SDS011;55524;51.380;13.372;2022-11-11T17:39:24;8.43;;;4.30;;
68523;SDS011;55524;51.380;13.372;2022-11-11T17:41:50;6.63;;;3.85;;
68523;SDS011;55524;51.380;13.372;2022-11-11T17:44:17;6.43;;;4.10;;
68523;SDS011;55524;51.380;13.372;2022-11-11T17:46:43;7.50;;;4.55;;
68523;SDS011;55524;51.380;13.372;2022-11-11T17:49:09;7.05;;;4.40;;
68523;SDS011;55524;51.380;13.372;2022-11-11T17:51:36;4.88;;;3.55;;
68523;SDS011;55524;51.380;13.372;2022-11-11T17:54:02;6.53;;;4.40;;
68523;SDS011;55524;51.380;13.372;2022-11-11T17:56:34;7.05;;;3.92;;
68523;SDS011;55524;51.380;13.372;2022-11-11T18:01:31;7.28;;;3.83;;
68523;SDS011;55524;51.380;13.372;2022-11-11T18:03:57;5.28;;;3.90;;
68523;SDS011;55524;51.380;13.372;2022-11-11T18:06:23;6.68;;;3.38;;
68523;SDS011;55524;51.380;13.372;2022-11-11T18:08:51;8.77;;;4.18;;
68523;SDS011;55524;51.380;13.372;2022-11-11T18:11:26;14.90;;;7.47;;
68523;SDS011;55524;51.380;13.372;2022-11-11T18:14:08;15.27;;;6.87;;
68523;SDS011;55524;51.380;13.372;2022-11-11T18:16:56;21.60;;;12.60;;
68523;SDS011;55524;51.380;13.372;2022-11-11T18:19:25;24.00;;;13.65;;
68523;SDS011;55524;51.380;13.372;2022-11-11T18:21:54;20.50;;;10.32;;
68523;SDS011;55524;51.380;13.372;2022-11-11T18:24:20;16.77;;;8.80;;
68523;SDS011;55524;51.380;13.372;2022-11-11T18:26:47;13.27;;;8.70;;
68523;SDS011;55524;51.380;13.372;2022-11-11T18:29:13;11.00;;;6.53;;
68523;SDS011;55524;51.380;13.372;2022-11-11T18:34:30;6.35;;;4.40;;
68523;SDS011;55524;51.380;13.372;2022-11-11T18:36:56;8.43;;;4.15;;
68523;SDS011;55524;51.380;13.372;2022-11-11T18:39:22;7.80;;;4.00;;
68523;SDS011;55524;51.380;13.372;2022-11-11T18:41:49;7.45;;;3.92;;
68523;SDS011;55524;51.380;13.372;2022-11-11T18:44:15;8.50;;;3.30;;
68523;SDS011;55524;51.380;13.372;2022-11-11T18:46:41;4.38;;;3.05;;
68523;SDS011;55524;51.380;13.372;2022-11-11T18:49:10;6.10;;;3.15;;
68523;SDS011;55524;51.380;13.372;2022-11-11T18:51:37;4.53;;;3.10;;
68523;SDS011;55524;51.380;13.372;2022-11-11T18:54:05;5.70;;;2.88;;
68523;SDS011;55524;51.380;13.372;2022-11-11T18:56:35;7.32;;;3.13;;
68523;SDS011;55524;51.380;13.372;2022-11-11T18:59:05;4.27;;;2.83;;
68523;SDS011;55524;51.380;13.372;2022-11-11T19:01:31;3.10;;;2.80;;
68523;SDS011;55524;51.380;13.372;2022-11-11T19:04:02;5.90;;;2.95;;